This is the latest recevied weather packets stored in our database for station/object LROD. If no packets are shown the sender has not sent any weather packets the latest 1 day(s).
| Time | Temp. | Humidity | Pressure | Rain* | Wind** | Luminosity | Snow |
|---|---|---|---|---|---|---|---|
| 1778117609 | 15° C | 63% | 1012 hPa | - | - | - | - |
| 1778116709 | 15° C | 63% | 1012 hPa | - | - | - | - |
| 1778114909 | 15° C | 68% | 1011 hPa | - | - | - | - |
| 1778114010 | 15° C | 68% | 1011 hPa | - | - | - | - |
| 1778113109 | 15° C | 68% | 1011 hPa | - | - | - | - |
| 1778109510 | 15° C | 68% | 1011 hPa | - | - | - | - |
| 1778107706 | 16.11° C | 63% | 1011 hPa | - | - | - | - |
| 1778100510 | 17.78° C | 52% | 1011 hPa | - | - | - | - |
| 1778096033 | 17.78° C | 52% | 1011 hPa | - | - | - | - |
| 1778093315 | 17.78° C | 52% | 1011 hPa | - | - | - | - |
| 1778090610 | 20° C | 46% | 1011 hPa | - | - | - | - |
| 1778089710 | 22.22° C | 41% | 1010 hPa | - | - | - | - |
| 1778084310 | 25° C | 36% | 1011 hPa | - | - | - | - |
| 1778082510 | 25° C | 34% | 1011 hPa | - | - | - | - |
| 1778078021 | 25° C | 36% | 1011 hPa | - | - | - | - |
| 1778076287 | 25° C | 36% | 1011 hPa | - | - | - | - |
| 1778071710 | 26.11° C | 34% | 1012 hPa | - | - | - | - |
| 1778069910 | 25° C | 34% | 1012 hPa | - | - | - | - |
| 1778067210 | 23.89° C | 36% | 1013 hPa | - | - | - | - |
| 1778065409 | 23.89° C | 39% | 1013 hPa | - | - | - | - |
| 1778062710 | 22.78° C | 41% | 1013 hPa | - | - | - | - |
| 1778055506 | 21.11° C | 46% | 1013 hPa | - | - | - | - |
| 1778053710 | 20° C | 46% | 1013 hPa | - | - | - | - |
| 1778051909 | 20° C | 46% | 1013 hPa | - | - | - | - |
| 1778051009 | 20° C | 46% | 1013 hPa | - | - | - | - |
* Rain since midnight (hover to see other rain measurements)
** Current wind speed in m/s (hover to see current wind gust speed)